createdAt,value
2019-05-05T00:01:25.067Z,98302.67
2019-05-05T00:04:06.248Z,98300.09
2019-05-05T00:06:34.245Z,98303.08
2019-05-05T00:09:01.913Z,98302.34
2019-05-05T00:11:40.086Z,98301.05
2019-05-05T00:14:09.803Z,98298.58
2019-05-05T00:16:48.006Z,98297.81
2019-05-05T00:19:29.477Z,98297.38
2019-05-05T00:21:45.003Z,98301.44
2019-05-05T00:24:12.505Z,98289.66
2019-05-05T00:26:40.003Z,98291.67
2019-05-05T00:29:07.505Z,98283.29
2019-05-05T00:31:35.079Z,98287.02
2019-05-05T00:34:04.865Z,98295.56
2019-05-05T00:36:31.904Z,98297.88
2019-05-05T00:39:00.149Z,98298.61
2019-05-05T00:41:27.644Z,98304.18
2019-05-05T00:43:55.503Z,98307.09
2019-05-05T00:46:27.252Z,98312.39
2019-05-05T00:48:55.103Z,98311.95
2019-05-05T00:51:24.470Z,98316.90
2019-05-05T00:53:52.084Z,98317.56
2019-05-05T00:56:19.593Z,98325.19
2019-05-05T00:58:49.488Z,98322.20
2019-05-05T01:01:37.305Z,98321.14
2019-05-05T01:04:05.319Z,98323.67
2019-05-05T01:06:34.626Z,98325.90
2019-05-05T01:09:04.298Z,98320.86
2019-05-05T01:11:31.993Z,98320.83
2019-05-05T01:13:59.489Z,98323.62
2019-05-05T01:16:26.993Z,98320.42
2019-05-05T01:18:55.403Z,98328.23
2019-05-05T01:21:24.410Z,98323.34
2019-05-05T01:23:52.140Z,98325.66
2019-05-05T01:26:19.644Z,98323.80
2019-05-05T01:28:47.136Z,98323.39
2019-05-05T01:31:16.480Z,98316.81
2019-05-05T01:34:01.921Z,98317.09
2019-05-05T01:36:29.424Z,98317.64
2019-05-05T01:39:01.483Z,98320.95
2019-05-05T01:41:34.817Z,98324.97
2019-05-05T01:44:04.677Z,98325.14
2019-05-05T01:46:31.704Z,98330.44
2019-05-05T01:48:59.284Z,98331.47
2019-05-05T01:51:27.552Z,98330.39
2019-05-05T01:53:55.044Z,98330.09
2019-05-05T01:56:24.544Z,98335.20
2019-05-05T01:58:51.763Z,98344.16
2019-05-05T02:01:19.268Z,98339.49
2019-05-05T02:03:46.760Z,98337.89
2019-05-05T02:06:15.134Z,98342.45
2019-05-05T02:08:42.631Z,98341.23
2019-05-05T02:11:10.129Z,98345.72
2019-05-05T02:13:37.620Z,98350.11
2019-05-05T02:16:05.130Z,98342.17
2019-05-05T02:18:34.489Z,98343.62
2019-05-05T02:21:04.954Z,98343.56
2019-05-05T02:23:32.292Z,98342.59
2019-05-05T02:25:59.796Z,98339.41
2019-05-05T02:28:28.931Z,98343.12
2019-05-05T02:31:16.689Z,98335.53
2019-05-05T02:33:45.978Z,98342.08
2019-05-05T02:36:15.756Z,98341.56
2019-05-05T02:38:42.002Z,98346.20
2019-05-05T02:41:09.516Z,98345.21
2019-05-05T02:43:37.006Z,98343.81
2019-05-05T02:46:06.150Z,98346.20
2019-05-05T02:48:35.497Z,98346.20
2019-05-05T02:51:06.725Z,98351.02
2019-05-05T02:53:37.341Z,98354.75
2019-05-05T02:56:06.476Z,98345.77
2019-05-05T02:58:35.431Z,98348.03
2019-05-05T03:01:07.088Z,98352.32
2019-05-05T03:03:35.144Z,98355.70
2019-05-05T03:06:04.449Z,98353.30
2019-05-05T03:08:33.583Z,98356.88
2019-05-05T03:11:01.338Z,98358.16
2019-05-05T03:13:29.800Z,98358.38
2019-05-05T03:15:58.929Z,98358.38
2019-05-05T03:18:26.420Z,98358.91
2019-05-05T03:21:03.951Z,98360.42
2019-05-05T03:23:24.042Z,98352.70
2019-05-05T03:25:51.712Z,98359.56
2019-05-05T03:28:19.200Z,98364.50
2019-05-05T03:30:46.701Z,98360.00
2019-05-05T03:33:15.978Z,98365.84
2019-05-05T03:35:43.667Z,98367.72
2019-05-05T03:38:11.288Z,98366.91
2019-05-05T03:40:40.416Z,98368.80
2019-05-05T03:43:09.555Z,98367.03
2019-05-05T03:45:47.344Z,98361.20
2019-05-05T03:48:14.851Z,98369.84
2019-05-05T03:50:44.516Z,98365.89
2019-05-05T03:53:11.563Z,98370.06
2019-05-05T03:55:39.065Z,98374.69
2019-05-05T03:58:06.565Z,98381.23
2019-05-05T04:00:38.569Z,98382.20
2019-05-05T04:03:07.840Z,98388.13
2019-05-05T04:05:37.223Z,98386.40
2019-05-05T04:08:04.722Z,98402.80
2019-05-05T04:10:33.516Z,98395.95
2019-05-05T04:13:01.669Z,98392.36
2019-05-05T04:15:29.162Z,98394.31
2019-05-05T04:17:58.300Z,98391.95
2019-05-05T04:20:27.276Z,98391.04
2019-05-05T04:22:57.934Z,98401.41
2019-05-05T04:25:24.432Z,98392.89
2019-05-05T04:27:53.844Z,98410.81
2019-05-05T04:30:23.479Z,98409.00
2019-05-05T04:32:50.416Z,98407.25
2019-05-05T04:35:17.985Z,98408.14
2019-05-05T04:37:45.490Z,98414.03
2019-05-05T04:40:14.766Z,98413.47
2019-05-05T04:42:44.131Z,98413.96
2019-05-05T04:45:12.252Z,98423.32
2019-05-05T04:47:44.340Z,98418.30
2019-05-05T04:50:29.890Z,98424.56
2019-05-05T04:52:59.089Z,98426.80
2019-05-05T04:55:27.272Z,98421.26
2019-05-05T04:57:54.864Z,98421.89
2019-05-05T05:00:24.156Z,98427.48
2019-05-05T05:02:59.183Z,98422.75
2019-05-05T05:05:44.608Z,98426.33
2019-05-05T05:08:13.928Z,98424.53
2019-05-05T05:10:43.799Z,98437.97
2019-05-05T05:13:13.873Z,98447.44
2019-05-05T05:15:41.656Z,98443.28
2019-05-05T05:18:16.575Z,98449.18
2019-05-05T05:20:44.472Z,98448.25
2019-05-05T05:23:14.135Z,98444.28
2019-05-05T05:25:43.706Z,98457.17
2019-05-05T05:28:11.080Z,98467.34
2019-05-05T05:30:38.567Z,98470.38
2019-05-05T05:33:06.168Z,98472.65
2019-05-05T05:35:34.428Z,98471.76
2019-05-05T05:38:01.929Z,98481.13
2019-05-05T05:40:34.235Z,98484.56
2019-05-05T05:43:04.707Z,98491.61
2019-05-05T05:45:34.381Z,98490.78
2019-05-05T05:48:04.122Z,98498.24
2019-05-05T05:50:39.281Z,98503.77
2019-05-05T05:53:06.780Z,98506.05
2019-05-05T05:55:34.383Z,98506.26
2019-05-05T05:58:02.044Z,98512.70
2019-05-05T06:00:29.548Z,98505.10
2019-05-05T06:02:57.049Z,98506.83
2019-05-05T06:05:24.557Z,98514.06
2019-05-05T06:07:54.275Z,98520.25
2019-05-05T06:10:25.036Z,98524.70
2019-05-05T06:12:50.652Z,98515.14
2019-05-05T06:15:18.817Z,98517.88
2019-05-05T06:17:46.424Z,98520.59
2019-05-05T06:20:14.553Z,98522.61
2019-05-05T06:22:44.528Z,98518.64
2019-05-05T06:25:15.098Z,98519.43
2019-05-05T06:27:40.656Z,98526.45
2019-05-05T06:30:08.156Z,98533.77
2019-05-05T06:32:35.650Z,98526.99
2019-05-05T06:35:03.813Z,98536.20
2019-05-05T06:37:31.396Z,98535.66
2019-05-05T06:40:00.533Z,98533.92
2019-05-05T06:42:29.668Z,98529.50
2019-05-05T06:45:04.020Z,98530.34
2019-05-05T06:47:34.001Z,98535.20
2019-05-05T06:50:03.562Z,98538.06
2019-05-05T06:52:41.970Z,98543.09
2019-05-05T06:55:00.002Z,98548.67
2019-05-05T06:57:27.488Z,98545.20
2019-05-05T06:59:55.004Z,98542.52
2019-05-05T07:02:23.807Z,98539.50
2019-05-05T07:04:51.472Z,98549.28
2019-05-05T07:07:18.964Z,98551.25
2019-05-05T07:09:46.492Z,98551.66
2019-05-05T07:12:14.036Z,98556.67
2019-05-05T07:14:41.565Z,98563.70
2019-05-05T07:17:09.060Z,98561.14
2019-05-05T07:19:38.820Z,98569.25
2019-05-05T07:22:06.317Z,98569.12
2019-05-05T07:24:34.402Z,98575.13
2019-05-05T07:27:04.133Z,98568.81
2019-05-05T07:29:31.488Z,98572.05
2019-05-05T07:31:59.006Z,98570.38
2019-05-05T07:34:28.311Z,98570.64
2019-05-05T07:36:55.813Z,98582.00
2019-05-05T07:39:23.891Z,98581.08
2019-05-05T07:41:51.500Z,98575.91
2019-05-05T07:44:26.627Z,98570.12
2019-05-05T07:46:48.215Z,98576.13
2019-05-05T07:49:15.717Z,98565.59
2019-05-05T07:51:44.212Z,98569.00
2019-05-05T07:54:14.309Z,98571.30
2019-05-05T07:56:45.824Z,98572.52
2019-05-05T07:59:14.556Z,98568.56
2019-05-05T08:01:45.876Z,98564.88
2019-05-05T08:04:13.546Z,98571.05
2019-05-05T08:06:40.824Z,98562.50
2019-05-05T08:09:08.338Z,98560.57
2019-05-05T08:11:36.590Z,98568.00
2019-05-05T08:14:04.224Z,98569.05
2019-05-05T08:16:45.505Z,98564.27
2019-05-05T08:19:31.157Z,98558.71
2019-05-05T08:21:58.644Z,98559.03
2019-05-05T08:24:45.644Z,98564.36
2019-05-05T08:27:20.825Z,98572.22
2019-05-05T08:29:48.599Z,98570.70
2019-05-05T08:32:17.730Z,98565.25
2019-05-05T08:34:57.467Z,98556.98
2019-05-05T08:37:14.663Z,98557.14
2019-05-05T08:39:44.557Z,98553.80
2019-05-05T08:42:11.648Z,98559.80
2019-05-05T08:44:39.148Z,98565.17
2019-05-05T08:47:06.716Z,98567.84
2019-05-05T08:49:34.802Z,98576.05
2019-05-05T08:52:04.028Z,98579.62
2019-05-05T08:54:31.800Z,98578.55
2019-05-05T08:56:59.288Z,98581.03
2019-05-05T08:59:26.780Z,98582.00
2019-05-05T09:01:54.308Z,98580.25
2019-05-05T09:04:21.848Z,98590.97
2019-05-05T09:06:49.363Z,98582.16
2019-05-05T09:09:16.857Z,98586.66
2019-05-05T09:11:44.363Z,98578.26
2019-05-05T09:14:11.853Z,98582.95
2019-05-05T09:16:39.349Z,98585.03
2019-05-05T09:19:20.508Z,98589.66
2019-05-05T09:21:48.016Z,98589.48
2019-05-05T09:24:17.144Z,98592.78
2019-05-05T09:26:46.284Z,98585.95
2019-05-05T09:29:21.364Z,98586.46
2019-05-05T09:31:48.868Z,98582.36
2019-05-05T09:34:16.416Z,98570.58
2019-05-05T09:36:44.037Z,98582.08
2019-05-05T09:39:13.614Z,98584.68
2019-05-05T09:41:40.871Z,98579.27
2019-05-05T09:44:08.356Z,98581.55
2019-05-05T09:46:35.861Z,98582.69
2019-05-05T09:49:04.677Z,98581.33
2019-05-05T09:51:34.540Z,98572.77
2019-05-05T09:54:13.774Z,98573.39
2019-05-05T09:56:30.793Z,98569.59
2019-05-05T09:58:58.284Z,98579.31
2019-05-05T10:01:25.788Z,98585.48
2019-05-05T10:03:54.920Z,98597.39
2019-05-05T10:06:24.362Z,98603.23
2019-05-05T10:08:53.739Z,98613.23
2019-05-05T10:11:21.075Z,98620.03
2019-05-05T10:13:48.552Z,98616.27
2019-05-05T10:16:16.060Z,98619.30
2019-05-05T10:18:44.859Z,98615.89
2019-05-05T10:21:13.829Z,98618.30
2019-05-05T10:23:43.693Z,98621.60
2019-05-05T10:26:11.672Z,98622.98
2019-05-05T10:28:39.176Z,98629.81
2019-05-05T10:31:06.687Z,98629.17
2019-05-05T10:33:36.415Z,98629.58
2019-05-05T10:36:04.089Z,98622.39
2019-05-05T10:38:33.998Z,98628.33
2019-05-05T10:41:01.188Z,98623.34
2019-05-05T10:43:28.680Z,98622.60
2019-05-05T10:45:56.180Z,98628.80
2019-05-05T10:48:23.686Z,98626.95
2019-05-05T10:50:51.172Z,98622.89
2019-05-05T10:53:18.663Z,98634.48
2019-05-05T10:55:46.158Z,98631.67
2019-05-05T10:58:13.852Z,98630.14
2019-05-05T11:00:45.614Z,98619.05
2019-05-05T11:03:14.804Z,98612.36
2019-05-05T11:05:44.561Z,98608.84
2019-05-05T11:08:13.478Z,98604.89
2019-05-05T11:10:40.788Z,98610.80
2019-05-05T11:13:08.359Z,98600.38
2019-05-05T11:15:35.853Z,98602.86
2019-05-05T11:18:04.029Z,98595.10
2019-05-05T11:20:33.847Z,98598.06
2019-05-05T11:23:00.966Z,98600.08
2019-05-05T11:25:29.816Z,98602.01
2019-05-05T11:27:58.104Z,98604.52
2019-05-05T11:30:27.597Z,98601.75
2019-05-05T11:33:14.270Z,98607.75
2019-05-05T11:35:55.301Z,98607.27
2019-05-05T11:38:24.585Z,98607.30
2019-05-05T11:40:52.016Z,98608.13
2019-05-05T11:43:19.520Z,98613.80
2019-05-05T11:45:47.018Z,98607.84
2019-05-05T11:48:14.881Z,98604.64
2019-05-05T11:50:43.662Z,98615.25
2019-05-05T11:53:11.392Z,98612.18
2019-05-05T11:55:38.880Z,98615.56
2019-05-05T11:58:06.392Z,98604.94
2019-05-05T12:00:34.714Z,98604.09
2019-05-05T12:03:03.852Z,98601.81
2019-05-05T12:05:33.567Z,98598.84
2019-05-05T12:08:00.779Z,98604.17
2019-05-05T12:10:29.916Z,98607.48
2019-05-05T12:12:59.072Z,98610.71
2019-05-05T12:15:26.565Z,98607.11
2019-05-05T12:17:54.535Z,98612.16
2019-05-05T12:20:34.772Z,98603.73
2019-05-05T12:23:04.657Z,98613.54
2019-05-05T12:25:54.969Z,98611.95
2019-05-05T12:28:25.688Z,98622.67
2019-05-05T12:30:55.610Z,98612.06
2019-05-05T12:33:24.315Z,98610.45
2019-05-05T12:35:53.864Z,98613.89
2019-05-05T12:38:21.125Z,98618.94
2019-05-05T12:40:48.620Z,98617.67
2019-05-05T12:43:16.120Z,98612.36
2019-05-05T12:45:47.745Z,98613.78
2019-05-05T12:48:16.893Z,98617.56
2019-05-05T12:50:44.761Z,98608.04
2019-05-05T12:53:14.418Z,98607.94
2019-05-05T12:55:41.991Z,98607.02
2019-05-05T12:58:10.080Z,98609.95
2019-05-05T13:00:39.221Z,98610.55
2019-05-05T13:03:06.729Z,98618.05
2019-05-05T13:05:34.254Z,98614.98
2019-05-05T13:08:03.750Z,98611.72
2019-05-05T13:10:31.101Z,98616.64
2019-05-05T13:12:58.603Z,98615.89
2019-05-05T13:15:26.169Z,98618.92
2019-05-05T13:17:54.229Z,98616.33
2019-05-05T13:20:33.927Z,98615.00
2019-05-05T13:23:06.068Z,98618.47
2019-05-05T13:25:35.197Z,98620.58
2019-05-05T13:28:04.081Z,98626.04
2019-05-05T13:30:31.748Z,98624.36
2019-05-05T13:32:59.253Z,98626.56
2019-05-05T13:35:26.745Z,98628.27
2019-05-05T13:37:54.963Z,98640.41
2019-05-05T13:40:24.054Z,98638.98
2019-05-05T13:42:51.697Z,98644.60
2019-05-05T13:45:29.821Z,98645.15
2019-05-05T13:47:57.312Z,98647.17
2019-05-05T13:50:29.381Z,98640.24
2019-05-05T13:52:56.870Z,98641.31
2019-05-05T13:55:24.369Z,98637.20
2019-05-05T13:57:54.853Z,98641.61
2019-05-05T14:00:25.537Z,98639.80
2019-05-05T14:02:54.477Z,98638.22
2019-05-05T14:05:23.968Z,98635.46
2019-05-05T14:07:53.654Z,98632.34
2019-05-05T14:10:23.521Z,98627.78
2019-05-05T14:12:50.481Z,98628.62
2019-05-05T14:15:17.984Z,98628.95
2019-05-05T14:17:45.475Z,98630.40
2019-05-05T14:20:14.782Z,98631.74
2019-05-05T14:22:43.838Z,98626.48
2019-05-05T14:25:13.538Z,98626.11
2019-05-05T14:27:41.117Z,98630.61
2019-05-05T14:30:26.671Z,98622.61
2019-05-05T14:32:55.301Z,98618.83
2019-05-05T14:35:27.352Z,98609.46
2019-05-05T14:38:03.900Z,98605.08
2019-05-05T14:40:31.475Z,98606.94
2019-05-05T14:42:58.972Z,98615.50
2019-05-05T14:45:26.480Z,98622.16
2019-05-05T14:47:54.743Z,98623.97
2019-05-05T14:50:24.035Z,98614.98
2019-05-05T14:52:53.431Z,98613.16
2019-05-05T14:55:22.382Z,98618.34
2019-05-05T14:57:50.080Z,98617.89
2019-05-05T15:00:19.225Z,98617.53
2019-05-05T15:02:46.876Z,98612.55
2019-05-05T15:05:33.819Z,98618.72
2019-05-05T15:08:13.635Z,98624.88
2019-05-05T15:10:59.324Z,98623.80
2019-05-05T15:13:26.819Z,98622.63
2019-05-05T15:15:54.315Z,98620.89
2019-05-05T15:18:23.958Z,98623.60
2019-05-05T15:20:51.867Z,98620.68
2019-05-05T15:23:19.447Z,98616.27
2019-05-05T15:25:46.948Z,98622.16
2019-05-05T15:28:14.444Z,98621.31
2019-05-05T15:30:43.989Z,98619.61
2019-05-05T15:33:11.260Z,98618.91
2019-05-05T15:35:39.532Z,98615.38
2019-05-05T15:38:08.292Z,98613.62
2019-05-05T15:40:35.792Z,98607.23
2019-05-05T15:43:03.804Z,98610.39
2019-05-05T15:45:31.432Z,98611.75
2019-05-05T15:47:58.932Z,98606.86
2019-05-05T15:50:26.442Z,98604.33
2019-05-05T15:52:54.473Z,98596.43
2019-05-05T15:55:22.220Z,98601.88
2019-05-05T15:57:49.717Z,98608.78
2019-05-05T16:00:17.216Z,98597.93
2019-05-05T16:02:44.708Z,98602.66
2019-05-05T16:05:13.751Z,98602.92
2019-05-05T16:07:41.388Z,98597.27
2019-05-05T16:10:08.893Z,98601.42
2019-05-05T16:12:39.377Z,98596.44
2019-05-05T16:15:25.488Z,98604.73
2019-05-05T16:18:00.588Z,98605.74
2019-05-05T16:20:45.992Z,98606.97
2019-05-05T16:23:21.334Z,98609.81
2019-05-05T16:25:48.836Z,98607.50
2019-05-05T16:28:16.331Z,98610.80
2019-05-05T16:30:44.468Z,98607.61
2019-05-05T16:33:13.779Z,98619.70
2019-05-05T16:35:43.790Z,98610.46
2019-05-05T16:38:11.396Z,98616.00
2019-05-05T16:40:39.668Z,98623.44
2019-05-05T16:43:07.159Z,98617.36
2019-05-05T16:45:34.655Z,98625.97
2019-05-05T16:48:03.906Z,98623.24
2019-05-05T16:50:31.691Z,98625.86
2019-05-05T16:53:05.472Z,98623.41
2019-05-05T16:55:37.824Z,98619.16
2019-05-05T16:58:06.736Z,98621.72
2019-05-05T17:00:35.237Z,98615.88
2019-05-05T17:03:07.126Z,98620.14
2019-05-05T17:05:38.138Z,98619.64
2019-05-05T17:08:06.120Z,98617.58
2019-05-05T17:10:34.272Z,98624.86
2019-05-05T17:13:03.568Z,98620.01
2019-05-05T17:15:38.729Z,98625.28
2019-05-05T17:18:32.877Z,98630.29
2019-05-05T17:21:01.132Z,98623.58
2019-05-05T17:23:28.625Z,98629.38
2019-05-05T17:25:56.690Z,98627.28
2019-05-05T17:28:24.192Z,98625.88
2019-05-05T17:30:51.684Z,98631.39
2019-05-05T17:33:19.189Z,98629.94
2019-05-05T17:35:47.360Z,98630.70
2019-05-05T17:38:16.225Z,98635.46
2019-05-05T17:40:45.443Z,98634.77
2019-05-05T17:43:24.422Z,98642.59
2019-05-05T17:46:04.073Z,98637.50
2019-05-05T17:48:44.064Z,98637.92
2019-05-05T17:51:15.469Z,98646.08
2019-05-05T17:53:44.604Z,98645.03
2019-05-05T17:56:13.535Z,98640.62
2019-05-05T17:58:41.144Z,98641.43
2019-05-05T18:01:08.644Z,98639.09
2019-05-05T18:03:36.156Z,98634.48
2019-05-05T18:06:05.947Z,98638.23
2019-05-05T18:08:44.502Z,98640.59
2019-05-05T18:11:17.185Z,98639.28
2019-05-05T18:17:07.055Z,98647.99
2019-05-05T18:19:34.559Z,98653.89
2019-05-05T18:22:03.072Z,98653.22
2019-05-05T18:24:30.557Z,98650.98
2019-05-05T18:26:58.056Z,98653.36
2019-05-05T18:29:25.548Z,98646.38
2019-05-05T18:31:53.663Z,98650.42
2019-05-05T18:34:23.195Z,98642.70
2019-05-05T18:36:50.484Z,98655.16
2019-05-05T18:39:17.979Z,98649.11
2019-05-05T18:42:04.391Z,98653.88
2019-05-05T18:44:33.603Z,98659.77
2019-05-05T18:47:18.152Z,98657.96
2019-05-05T18:49:44.159Z,98654.94
2019-05-05T18:52:13.710Z,98652.57
2019-05-05T18:54:40.885Z,98666.39
2019-05-05T18:57:09.057Z,98668.77
2019-05-05T18:59:36.552Z,98667.23
2019-05-05T19:02:21.147Z,98675.31
2019-05-05T19:04:56.282Z,98678.70
2019-05-05T19:07:28.121Z,98676.50
2019-05-05T19:09:56.958Z,98678.69
2019-05-05T19:12:24.658Z,98677.50
2019-05-05T19:14:52.271Z,98679.44
2019-05-05T19:17:19.776Z,98686.52
2019-05-05T19:19:48.906Z,98683.09
2019-05-05T19:22:48.403Z,98685.13
2019-05-05T19:25:16.124Z,98684.44
2019-05-05T19:27:44.425Z,98691.45
2019-05-05T19:30:13.752Z,98687.03
2019-05-05T19:32:43.307Z,98695.61
2019-05-05T19:35:10.547Z,98698.92
2019-05-05T19:37:38.048Z,98697.11
2019-05-05T19:40:06.141Z,98700.48
2019-05-05T19:42:33.916Z,98704.95
2019-05-05T19:45:01.428Z,98705.10
2019-05-05T19:47:28.929Z,98710.09
2019-05-05T19:49:58.062Z,98707.42
2019-05-05T19:52:25.560Z,98706.70
2019-05-05T19:54:54.735Z,98710.35
2019-05-05T19:57:22.425Z,98711.20
2019-05-05T19:59:49.916Z,98706.56
2019-05-05T20:02:17.409Z,98709.09
2019-05-05T20:04:44.927Z,98712.81
2019-05-05T20:07:13.934Z,98718.02
2019-05-05T20:09:43.563Z,98719.51
2019-05-05T20:12:10.920Z,98717.89
2019-05-05T20:14:38.416Z,98721.92
2019-05-05T20:17:14.776Z,98717.17
2019-05-05T20:19:44.138Z,98718.28
2019-05-05T20:22:11.818Z,98718.52
2019-05-05T20:24:39.316Z,98723.16
2019-05-05T20:27:06.804Z,98719.69
2019-05-05T20:29:37.342Z,98723.61
2019-05-05T20:32:04.288Z,98730.05
2019-05-05T20:34:39.444Z,98729.30
2019-05-05T20:37:11.457Z,98722.52
2019-05-05T20:39:38.956Z,98719.80
2019-05-05T20:42:06.664Z,98720.13
2019-05-05T20:44:34.243Z,98724.59
2019-05-05T20:47:04.356Z,98728.28
2019-05-05T20:49:31.415Z,98727.78
2019-05-05T20:51:58.895Z,98720.92
2019-05-05T20:54:27.163Z,98722.58
2019-05-05T20:56:54.658Z,98724.77
2019-05-05T20:59:28.163Z,98728.27
2019-05-05T21:01:51.454Z,98728.71
2019-05-05T21:04:18.949Z,98729.19
2019-05-05T21:06:46.439Z,98733.27
2019-05-05T21:09:14.352Z,98731.70
2019-05-05T21:11:43.778Z,98730.91
2019-05-05T21:14:11.234Z,98731.23
2019-05-05T21:16:38.792Z,98728.86
2019-05-05T21:19:06.332Z,98719.45
2019-05-05T21:21:35.474Z,98727.84
2019-05-05T21:24:04.173Z,98726.47
2019-05-05T21:26:51.696Z,98731.88
2019-05-05T21:29:19.214Z,98729.94
2019-05-05T21:31:46.709Z,98733.83
2019-05-05T21:34:14.279Z,98729.95
2019-05-05T21:36:41.787Z,98732.52
2019-05-05T21:39:09.386Z,98733.59
2019-05-05T21:41:37.114Z,98733.34
2019-05-05T21:44:05.255Z,98734.72
2019-05-05T21:46:34.579Z,98737.46
2019-05-05T21:49:04.006Z,98730.73
2019-05-05T21:51:41.927Z,98730.27
2019-05-05T21:54:27.707Z,98732.74
2019-05-05T21:57:14.079Z,98735.80
2019-05-05T21:59:54.398Z,98738.17
2019-05-05T22:02:11.016Z,98743.51
2019-05-05T22:04:38.516Z,98737.83
2019-05-05T22:07:06.007Z,98735.30
2019-05-05T22:09:34.348Z,98738.48
2019-05-05T22:12:04.046Z,98737.83
2019-05-05T22:14:33.998Z,98736.98
2019-05-05T22:17:01.036Z,98735.77
2019-05-05T22:19:30.184Z,98736.07
2019-05-05T22:22:05.607Z,98737.39
2019-05-05T22:24:33.370Z,98735.17
2019-05-05T22:27:04.557Z,98728.94
2019-05-05T22:29:31.567Z,98729.22
2019-05-05T22:31:59.052Z,98735.58
2019-05-05T22:34:26.552Z,98733.94
2019-05-05T22:36:54.047Z,98735.91
2019-05-05T22:39:21.545Z,98734.95
2019-05-05T22:41:49.036Z,98731.25
2019-05-05T22:44:16.544Z,98732.24
2019-05-05T22:46:44.032Z,98732.96
2019-05-05T22:49:11.515Z,98729.41
2019-05-05T22:51:39.027Z,98737.30
2019-05-05T22:54:07.180Z,98734.60
2019-05-05T22:56:34.675Z,98734.36
2019-05-05T22:59:04.370Z,98732.74
2019-05-05T23:01:32.072Z,98727.73
2019-05-05T23:04:04.168Z,98725.53
2019-05-05T23:06:33.311Z,98728.94
2019-05-05T23:09:00.807Z,98736.59
2019-05-05T23:11:28.372Z,98734.70
2019-05-05T23:13:57.500Z,98730.81
2019-05-05T23:16:26.642Z,98729.94
2019-05-05T23:18:54.719Z,98728.89
2019-05-05T23:21:24.719Z,98726.53
2019-05-05T23:23:56.754Z,98732.43
2019-05-05T23:26:28.843Z,98730.11
2019-05-05T23:28:57.114Z,98730.06
2019-05-05T23:31:24.653Z,98725.88
2019-05-05T23:33:52.144Z,98725.68
2019-05-05T23:36:19.647Z,98728.82
2019-05-05T23:38:47.136Z,98729.23
2019-05-05T23:41:14.753Z,98723.45
2019-05-05T23:43:44.918Z,98719.81
2019-05-05T23:46:14.308Z,98723.84
2019-05-05T23:48:41.414Z,98724.44
2019-05-05T23:51:08.920Z,98715.05
2019-05-05T23:53:36.407Z,98719.14
2019-05-05T23:56:04.059Z,98715.48
2019-05-05T23:58:31.667Z,98715.38
